sensor_id;sensor_type;location;lat;lon;timestamp;temperature;humidity
26691;DHT22;14307;51.718;8.938;2022-10-31T00:01:11;11.10;99.90
26691;DHT22;14307;51.718;8.938;2022-10-31T00:03:38;11.20;99.90
26691;DHT22;14307;51.718;8.938;2022-10-31T00:06:05;11.00;99.90
26691;DHT22;14307;51.718;8.938;2022-10-31T00:08:32;11.10;99.90
26691;DHT22;14307;51.718;8.938;2022-10-31T00:10:59;11.10;99.90
26691;DHT22;14307;51.718;8.938;2022-10-31T00:13:26;11.10;99.90
26691;DHT22;14307;51.718;8.938;2022-10-31T00:15:53;11.10;99.90
26691;DHT22;14307;51.718;8.938;2022-10-31T00:18:20;11.00;99.90
26691;DHT22;14307;51.718;8.938;2022-10-31T00:20:46;11.00;99.90
26691;DHT22;14307;51.718;8.938;2022-10-31T00:23:13;10.90;99.90
26691;DHT22;14307;51.718;8.938;2022-10-31T00:25:40;10.90;99.90
26691;DHT22;14307;51.718;8.938;2022-10-31T00:28:09;10.90;99.90
26691;DHT22;14307;51.718;8.938;2022-10-31T00:30:37;10.90;99.90
26691;DHT22;14307;51.718;8.938;2022-10-31T00:33:04;10.80;99.90
26691;DHT22;14307;51.718;8.938;2022-10-31T00:35:32;10.90;99.90
26691;DHT22;14307;51.718;8.938;2022-10-31T00:37:59;11.10;99.90
26691;DHT22;14307;51.718;8.938;2022-10-31T00:40:26;11.10;99.90
26691;DHT22;14307;51.718;8.938;2022-10-31T00:42:53;11.30;99.90
26691;DHT22;14307;51.718;8.938;2022-10-31T00:45:19;11.30;99.90
26691;DHT22;14307;51.718;8.938;2022-10-31T00:47:47;11.40;99.90
26691;DHT22;14307;51.718;8.938;2022-10-31T00:50:13;11.60;99.90
26691;DHT22;14307;51.718;8.938;2022-10-31T00:52:40;11.70;99.90
26691;DHT22;14307;51.718;8.938;2022-10-31T00:55:07;11.80;99.90
26691;DHT22;14307;51.718;8.938;2022-10-31T00:57:34;11.90;99.90
26691;DHT22;14307;51.718;8.938;2022-10-31T01:00:02;12.00;99.90
26691;DHT22;14307;51.718;8.938;2022-10-31T01:02:29;12.10;99.90
26691;DHT22;14307;51.718;8.938;2022-10-31T01:04:56;12.10;99.90
26691;DHT22;14307;51.718;8.938;2022-10-31T01:07:22;12.20;99.90
26691;DHT22;14307;51.718;8.938;2022-10-31T01:09:49;12.40;99.90
26691;DHT22;14307;51.718;8.938;2022-10-31T01:12:16;12.40;99.90
26691;DHT22;14307;51.718;8.938;2022-10-31T01:14:44;12.50;99.90
26691;DHT22;14307;51.718;8.938;2022-10-31T01:17:12;12.50;99.90
26691;DHT22;14307;51.718;8.938;2022-10-31T01:19:39;12.50;99.90
26691;DHT22;14307;51.718;8.938;2022-10-31T01:22:06;12.50;99.90
26691;DHT22;14307;51.718;8.938;2022-10-31T01:24:33;12.50;99.90
26691;DHT22;14307;51.718;8.938;2022-10-31T01:27:01;12.40;99.90
26691;DHT22;14307;51.718;8.938;2022-10-31T01:29:31;12.40;99.90
26691;DHT22;14307;51.718;8.938;2022-10-31T01:31:58;12.40;99.90
26691;DHT22;14307;51.718;8.938;2022-10-31T01:34:24;12.40;99.90
26691;DHT22;14307;51.718;8.938;2022-10-31T01:36:51;12.40;99.90
26691;DHT22;14307;51.718;8.938;2022-10-31T01:39:19;12.40;99.90
26691;DHT22;14307;51.718;8.938;2022-10-31T01:41:48;12.40;99.90
26691;DHT22;14307;51.718;8.938;2022-10-31T01:49:17;12.30;99.90
26691;DHT22;14307;51.718;8.938;2022-10-31T01:51:51;12.30;99.90
26691;DHT22;14307;51.718;8.938;2022-10-31T01:54:22;12.20;99.90
26691;DHT22;14307;51.718;8.938;2022-10-31T01:56:53;12.20;99.90
26691;DHT22;14307;51.718;8.938;2022-10-31T01:59:22;12.20;99.90
26691;DHT22;14307;51.718;8.938;2022-10-31T02:01:52;12.20;99.90
26691;DHT22;14307;51.718;8.938;2022-10-31T02:04:22;12.30;99.90
26691;DHT22;14307;51.718;8.938;2022-10-31T02:07:00;12.30;99.90
26691;DHT22;14307;51.718;8.938;2022-10-31T02:09:30;12.20;99.90
26691;DHT22;14307;51.718;8.938;2022-10-31T02:12:01;12.00;99.90
26691;DHT22;14307;51.718;8.938;2022-10-31T02:14:30;11.90;99.90
26691;DHT22;14307;51.718;8.938;2022-10-31T02:16:57;11.80;99.90
26691;DHT22;14307;51.718;8.938;2022-10-31T02:19:31;11.70;99.90
26691;DHT22;14307;51.718;8.938;2022-10-31T02:22:21;11.70;99.90
26691;DHT22;14307;51.718;8.938;2022-10-31T02:28:25;11.70;99.90
26691;DHT22;14307;51.718;8.938;2022-10-31T02:33:55;11.50;99.90
26691;DHT22;14307;51.718;8.938;2022-10-31T02:39:32;11.30;99.90
26691;DHT22;14307;51.718;8.938;2022-10-31T02:44:44;10.90;99.90
26691;DHT22;14307;51.718;8.938;2022-10-31T02:47:24;10.90;99.90
26691;DHT22;14307;51.718;8.938;2022-10-31T02:50:01;10.80;99.90
26691;DHT22;14307;51.718;8.938;2022-10-31T02:52:34;10.90;99.90
26691;DHT22;14307;51.718;8.938;2022-10-31T02:58:05;10.80;99.90
26691;DHT22;14307;51.718;8.938;2022-10-31T03:00:53;10.80;99.90
26691;DHT22;14307;51.718;8.938;2022-10-31T03:03:33;10.80;99.90
26691;DHT22;14307;51.718;8.938;2022-10-31T03:06:14;10.70;99.90
26691;DHT22;14307;51.718;8.938;2022-10-31T03:08:45;10.80;99.90
26691;DHT22;14307;51.718;8.938;2022-10-31T03:11:17;10.50;99.90
26691;DHT22;14307;51.718;8.938;2022-10-31T03:13:51;10.30;99.90
26691;DHT22;14307;51.718;8.938;2022-10-31T03:16:23;10.20;99.90
26691;DHT22;14307;51.718;8.938;2022-10-31T03:19:04;10.10;99.90
26691;DHT22;14307;51.718;8.938;2022-10-31T03:21:37;10.10;99.90
26691;DHT22;14307;51.718;8.938;2022-10-31T03:24:07;10.30;99.90
26691;DHT22;14307;51.718;8.938;2022-10-31T03:26:38;10.40;99.90
26691;DHT22;14307;51.718;8.938;2022-10-31T03:29:10;10.40;99.90
26691;DHT22;14307;51.718;8.938;2022-10-31T03:32:04;10.60;99.90
26691;DHT22;14307;51.718;8.938;2022-10-31T03:34:36;10.50;99.90
26691;DHT22;14307;51.718;8.938;2022-10-31T03:37:06;10.50;99.90
26691;DHT22;14307;51.718;8.938;2022-10-31T03:39:34;10.50;99.90
26691;DHT22;14307;51.718;8.938;2022-10-31T03:42:09;10.50;99.90
26691;DHT22;14307;51.718;8.938;2022-10-31T03:44:38;10.50;99.90
26691;DHT22;14307;51.718;8.938;2022-10-31T03:47:07;10.50;99.90
26691;DHT22;14307;51.718;8.938;2022-10-31T03:49:35;10.50;99.90
26691;DHT22;14307;51.718;8.938;2022-10-31T03:52:28;10.40;99.90
26691;DHT22;14307;51.718;8.938;2022-10-31T03:55:07;10.30;99.90
26691;DHT22;14307;51.718;8.938;2022-10-31T04:00:10;10.20;99.90
26691;DHT22;14307;51.718;8.938;2022-10-31T04:02:55;10.10;99.90
26691;DHT22;14307;51.718;8.938;2022-10-31T04:05:24;10.20;99.90
26691;DHT22;14307;51.718;8.938;2022-10-31T04:07:55;10.10;99.90
26691;DHT22;14307;51.718;8.938;2022-10-31T04:10:25;10.20;99.90
26691;DHT22;14307;51.718;8.938;2022-10-31T04:13:09;10.20;99.90
26691;DHT22;14307;51.718;8.938;2022-10-31T04:15:44;9.90;99.90
26691;DHT22;14307;51.718;8.938;2022-10-31T04:18:12;9.80;99.90
26691;DHT22;14307;51.718;8.938;2022-10-31T04:20:40;9.80;99.90
26691;DHT22;14307;51.718;8.938;2022-10-31T04:23:22;9.60;99.90
26691;DHT22;14307;51.718;8.938;2022-10-31T04:25:50;9.70;99.90
26691;DHT22;14307;51.718;8.938;2022-10-31T04:28:18;9.70;99.90
26691;DHT22;14307;51.718;8.938;2022-10-31T04:30:50;9.70;99.90
26691;DHT22;14307;51.718;8.938;2022-10-31T04:33:17;9.60;99.90
26691;DHT22;14307;51.718;8.938;2022-10-31T04:35:46;9.50;99.90
26691;DHT22;14307;51.718;8.938;2022-10-31T04:38:12;9.40;99.90
26691;DHT22;14307;51.718;8.938;2022-10-31T04:40:40;9.30;99.90
26691;DHT22;14307;51.718;8.938;2022-10-31T04:43:25;9.20;99.90
26691;DHT22;14307;51.718;8.938;2022-10-31T04:45:52;9.20;99.90
26691;DHT22;14307;51.718;8.938;2022-10-31T04:48:19;9.10;99.90
26691;DHT22;14307;51.718;8.938;2022-10-31T04:50:45;9.20;99.90
26691;DHT22;14307;51.718;8.938;2022-10-31T04:53:14;9.20;99.90
26691;DHT22;14307;51.718;8.938;2022-10-31T04:56:06;9.40;99.90
26691;DHT22;14307;51.718;8.938;2022-10-31T04:58:41;9.30;99.90
26691;DHT22;14307;51.718;8.938;2022-10-31T05:01:09;9.50;99.90
26691;DHT22;14307;51.718;8.938;2022-10-31T05:03:36;9.50;99.90
26691;DHT22;14307;51.718;8.938;2022-10-31T05:06:03;9.40;99.90
26691;DHT22;14307;51.718;8.938;2022-10-31T05:08:29;9.40;99.90
26691;DHT22;14307;51.718;8.938;2022-10-31T05:11:02;9.40;99.90
26691;DHT22;14307;51.718;8.938;2022-10-31T05:13:30;9.30;99.90
26691;DHT22;14307;51.718;8.938;2022-10-31T05:16:12;9.30;99.90
26691;DHT22;14307;51.718;8.938;2022-10-31T05:18:54;9.20;99.90
26691;DHT22;14307;51.718;8.938;2022-10-31T05:21:47;9.20;99.90
26691;DHT22;14307;51.718;8.938;2022-10-31T05:24:13;9.10;99.90
26691;DHT22;14307;51.718;8.938;2022-10-31T05:26:45;9.10;99.90
26691;DHT22;14307;51.718;8.938;2022-10-31T05:29:13;9.10;99.90
26691;DHT22;14307;51.718;8.938;2022-10-31T05:31:39;8.90;99.90
26691;DHT22;14307;51.718;8.938;2022-10-31T05:34:12;8.80;99.90
26691;DHT22;14307;51.718;8.938;2022-10-31T05:37:05;8.80;99.90
26691;DHT22;14307;51.718;8.938;2022-10-31T05:39:32;8.60;99.90
26691;DHT22;14307;51.718;8.938;2022-10-31T05:42:03;8.70;99.90
26691;DHT22;14307;51.718;8.938;2022-10-31T05:44:30;8.60;99.90
26691;DHT22;14307;51.718;8.938;2022-10-31T05:47:08;8.60;99.90
26691;DHT22;14307;51.718;8.938;2022-10-31T05:49:53;8.60;99.90
26691;DHT22;14307;51.718;8.938;2022-10-31T05:53:04;8.50;99.90
26691;DHT22;14307;51.718;8.938;2022-10-31T05:55:37;8.50;99.90
26691;DHT22;14307;51.718;8.938;2022-10-31T05:58:12;8.60;99.90
26691;DHT22;14307;51.718;8.938;2022-10-31T06:00:45;8.70;99.90
26691;DHT22;14307;51.718;8.938;2022-10-31T06:03:12;8.60;99.90
26691;DHT22;14307;51.718;8.938;2022-10-31T06:05:54;8.70;99.90
26691;DHT22;14307;51.718;8.938;2022-10-31T06:08:24;8.60;99.90
26691;DHT22;14307;51.718;8.938;2022-10-31T06:10:53;8.70;99.90
26691;DHT22;14307;51.718;8.938;2022-10-31T06:13:29;8.70;99.90
26691;DHT22;14307;51.718;8.938;2022-10-31T06:16:07;8.80;99.90
26691;DHT22;14307;51.718;8.938;2022-10-31T06:18:36;8.60;99.90
26691;DHT22;14307;51.718;8.938;2022-10-31T06:21:03;8.60;99.90
26691;DHT22;14307;51.718;8.938;2022-10-31T06:23:30;8.60;99.90
26691;DHT22;14307;51.718;8.938;2022-10-31T06:26:17;8.70;99.90
26691;DHT22;14307;51.718;8.938;2022-10-31T06:28:43;8.60;99.90
26691;DHT22;14307;51.718;8.938;2022-10-31T06:31:24;8.70;99.90
26691;DHT22;14307;51.718;8.938;2022-10-31T06:33:51;8.70;99.90
26691;DHT22;14307;51.718;8.938;2022-10-31T06:36:18;8.70;99.90
26691;DHT22;14307;51.718;8.938;2022-10-31T06:38:46;8.80;99.90
26691;DHT22;14307;51.718;8.938;2022-10-31T06:41:15;8.80;99.90
26691;DHT22;14307;51.718;8.938;2022-10-31T06:43:46;8.80;99.90
26691;DHT22;14307;51.718;8.938;2022-10-31T06:46:30;8.80;99.90
26691;DHT22;14307;51.718;8.938;2022-10-31T06:49:12;8.70;99.90
26691;DHT22;14307;51.718;8.938;2022-10-31T06:51:52;8.70;99.90
26691;DHT22;14307;51.718;8.938;2022-10-31T06:54:19;8.60;99.90
26691;DHT22;14307;51.718;8.938;2022-10-31T06:56:46;8.60;99.90
26691;DHT22;14307;51.718;8.938;2022-10-31T06:59:16;8.60;99.90
26691;DHT22;14307;51.718;8.938;2022-10-31T07:02:01;8.70;99.90
26691;DHT22;14307;51.718;8.938;2022-10-31T07:04:28;8.70;99.90
26691;DHT22;14307;51.718;8.938;2022-10-31T07:06:55;8.80;99.90
26691;DHT22;14307;51.718;8.938;2022-10-31T07:09:23;8.80;99.90
26691;DHT22;14307;51.718;8.938;2022-10-31T07:11:52;8.80;99.90
26691;DHT22;14307;51.718;8.938;2022-10-31T07:14:19;9.00;99.90
26691;DHT22;14307;51.718;8.938;2022-10-31T07:16:50;9.10;99.90
26691;DHT22;14307;51.718;8.938;2022-10-31T07:19:22;9.20;99.90
26691;DHT22;14307;51.718;8.938;2022-10-31T07:21:49;9.20;99.90
26691;DHT22;14307;51.718;8.938;2022-10-31T07:24:16;9.40;99.90
26691;DHT22;14307;51.718;8.938;2022-10-31T07:26:42;9.40;99.90
26691;DHT22;14307;51.718;8.938;2022-10-31T07:29:10;9.40;99.90
26691;DHT22;14307;51.718;8.938;2022-10-31T07:31:37;9.50;99.90
26691;DHT22;14307;51.718;8.938;2022-10-31T07:34:11;9.50;99.90
26691;DHT22;14307;51.718;8.938;2022-10-31T07:37:10;9.60;99.90
26691;DHT22;14307;51.718;8.938;2022-10-31T07:39:37;9.60;99.90
26691;DHT22;14307;51.718;8.938;2022-10-31T07:42:05;9.70;99.90
26691;DHT22;14307;51.718;8.938;2022-10-31T07:44:33;9.80;99.90
26691;DHT22;14307;51.718;8.938;2022-10-31T07:47:29;9.90;99.90
26691;DHT22;14307;51.718;8.938;2022-10-31T07:50:01;10.00;99.90
26691;DHT22;14307;51.718;8.938;2022-10-31T07:52:47;10.20;99.90
26691;DHT22;14307;51.718;8.938;2022-10-31T07:55:32;10.40;99.90
26691;DHT22;14307;51.718;8.938;2022-10-31T07:58:01;10.40;99.90
26691;DHT22;14307;51.718;8.938;2022-10-31T08:00:30;10.50;99.90
26691;DHT22;14307;51.718;8.938;2022-10-31T08:03:02;10.70;99.90
26691;DHT22;14307;51.718;8.938;2022-10-31T08:05:48;10.80;99.90
26691;DHT22;14307;51.718;8.938;2022-10-31T08:08:44;10.90;99.90
26691;DHT22;14307;51.718;8.938;2022-10-31T08:11:11;11.10;99.90
26691;DHT22;14307;51.718;8.938;2022-10-31T08:13:38;11.30;99.90
26691;DHT22;14307;51.718;8.938;2022-10-31T08:16:05;11.30;99.90
26691;DHT22;14307;51.718;8.938;2022-10-31T08:18:36;11.40;99.90
26691;DHT22;14307;51.718;8.938;2022-10-31T08:21:11;11.60;99.90
26691;DHT22;14307;51.718;8.938;2022-10-31T08:23:38;11.80;99.90
26691;DHT22;14307;51.718;8.938;2022-10-31T08:26:06;11.90;99.90
26691;DHT22;14307;51.718;8.938;2022-10-31T08:28:33;12.00;99.90
26691;DHT22;14307;51.718;8.938;2022-10-31T08:31:00;12.20;99.90
26691;DHT22;14307;51.718;8.938;2022-10-31T08:33:47;12.30;99.90
26691;DHT22;14307;51.718;8.938;2022-10-31T08:36:52;12.50;99.90
26691;DHT22;14307;51.718;8.938;2022-10-31T08:39:27;12.70;99.90
26691;DHT22;14307;51.718;8.938;2022-10-31T08:41:54;13.00;99.90
26691;DHT22;14307;51.718;8.938;2022-10-31T08:44:21;13.30;99.90
26691;DHT22;14307;51.718;8.938;2022-10-31T08:46:48;13.50;99.90
26691;DHT22;14307;51.718;8.938;2022-10-31T08:49:15;13.90;99.90
26691;DHT22;14307;51.718;8.938;2022-10-31T08:51:42;14.10;99.90
26691;DHT22;14307;51.718;8.938;2022-10-31T08:54:09;14.30;99.90
26691;DHT22;14307;51.718;8.938;2022-10-31T08:56:56;14.50;99.90
26691;DHT22;14307;51.718;8.938;2022-10-31T08:59:39;14.80;99.90
26691;DHT22;14307;51.718;8.938;2022-10-31T09:02:20;15.00;99.90
26691;DHT22;14307;51.718;8.938;2022-10-31T09:04:49;15.00;99.90
26691;DHT22;14307;51.718;8.938;2022-10-31T09:07:16;15.20;99.90
26691;DHT22;14307;51.718;8.938;2022-10-31T09:09:47;15.60;99.90
26691;DHT22;14307;51.718;8.938;2022-10-31T09:12:14;15.90;99.90
26691;DHT22;14307;51.718;8.938;2022-10-31T09:14:58;16.10;99.90
26691;DHT22;14307;51.718;8.938;2022-10-31T09:17:33;16.20;99.90
26691;DHT22;14307;51.718;8.938;2022-10-31T09:20:18;16.20;99.90
26691;DHT22;14307;51.718;8.938;2022-10-31T09:22:45;16.40;99.90
26691;DHT22;14307;51.718;8.938;2022-10-31T09:25:12;16.40;99.90
26691;DHT22;14307;51.718;8.938;2022-10-31T09:27:43;16.50;99.90
26691;DHT22;14307;51.718;8.938;2022-10-31T09:30:10;16.60;99.90
26691;DHT22;14307;51.718;8.938;2022-10-31T09:32:38;16.60;99.90
26691;DHT22;14307;51.718;8.938;2022-10-31T09:35:05;16.70;99.90
26691;DHT22;14307;51.718;8.938;2022-10-31T09:37:32;16.70;99.90
26691;DHT22;14307;51.718;8.938;2022-10-31T09:39:59;16.70;99.90
26691;DHT22;14307;51.718;8.938;2022-10-31T09:51:32;16.60;99.90
26691;DHT22;14307;51.718;8.938;2022-10-31T09:54:39;16.50;99.90
26691;DHT22;14307;51.718;8.938;2022-10-31T09:57:12;16.60;99.90
26691;DHT22;14307;51.718;8.938;2022-10-31T09:59:43;16.60;99.90
26691;DHT22;14307;51.718;8.938;2022-10-31T10:02:37;16.60;99.90
26691;DHT22;14307;51.718;8.938;2022-10-31T10:05:12;16.60;99.90
26691;DHT22;14307;51.718;8.938;2022-10-31T10:08:11;16.80;99.90
26691;DHT22;14307;51.718;8.938;2022-10-31T10:17:28;17.00;99.90
26691;DHT22;14307;51.718;8.938;2022-10-31T10:22:23;17.20;99.90
26691;DHT22;14307;51.718;8.938;2022-10-31T10:27:47;17.10;99.90
26691;DHT22;14307;51.718;8.938;2022-10-31T10:30:26;17.00;99.90
26691;DHT22;14307;51.718;8.938;2022-10-31T10:32:59;17.00;99.90
26691;DHT22;14307;51.718;8.938;2022-10-31T10:35:34;16.90;99.90
26691;DHT22;14307;51.718;8.938;2022-10-31T10:40:58;17.00;99.90
26691;DHT22;14307;51.718;8.938;2022-10-31T10:43:38;17.00;99.90
26691;DHT22;14307;51.718;8.938;2022-10-31T10:49:12;16.90;99.90
26691;DHT22;14307;51.718;8.938;2022-10-31T10:57:16;16.70;99.90
26691;DHT22;14307;51.718;8.938;2022-10-31T10:59:45;16.90;99.90
26691;DHT22;14307;51.718;8.938;2022-10-31T11:02:21;17.20;99.90
26691;DHT22;14307;51.718;8.938;2022-10-31T11:04:54;17.20;99.90
26691;DHT22;14307;51.718;8.938;2022-10-31T11:07:22;17.20;99.90
26691;DHT22;14307;51.718;8.938;2022-10-31T11:09:49;17.10;99.90
26691;DHT22;14307;51.718;8.938;2022-10-31T11:12:22;17.00;99.90
26691;DHT22;14307;51.718;8.938;2022-10-31T11:17:36;16.80;99.90
26691;DHT22;14307;51.718;8.938;2022-10-31T11:20:31;16.80;99.90
26691;DHT22;14307;51.718;8.938;2022-10-31T11:23:25;17.00;99.90
26691;DHT22;14307;51.718;8.938;2022-10-31T11:26:01;17.10;99.90
26691;DHT22;14307;51.718;8.938;2022-10-31T11:28:30;17.30;99.90
26691;DHT22;14307;51.718;8.938;2022-10-31T11:31:00;17.40;99.90
26691;DHT22;14307;51.718;8.938;2022-10-31T11:33:39;17.60;99.90
26691;DHT22;14307;51.718;8.938;2022-10-31T11:36:24;17.70;99.90
26691;DHT22;14307;51.718;8.938;2022-10-31T11:38:52;17.70;99.90
26691;DHT22;14307;51.718;8.938;2022-10-31T11:41:28;17.80;99.90
26691;DHT22;14307;51.718;8.938;2022-10-31T11:44:02;17.90;99.90
26691;DHT22;14307;51.718;8.938;2022-10-31T11:46:52;17.90;99.90
26691;DHT22;14307;51.718;8.938;2022-10-31T11:49:40;17.80;99.90
26691;DHT22;14307;51.718;8.938;2022-10-31T11:52:15;17.60;99.90
26691;DHT22;14307;51.718;8.938;2022-10-31T11:54:50;17.50;99.90
26691;DHT22;14307;51.718;8.938;2022-10-31T11:57:46;17.50;99.90
26691;DHT22;14307;51.718;8.938;2022-10-31T12:00:29;17.40;99.90
26691;DHT22;14307;51.718;8.938;2022-10-31T12:06:12;17.40;99.90
26691;DHT22;14307;51.718;8.938;2022-10-31T12:08:41;17.40;99.90
26691;DHT22;14307;51.718;8.938;2022-10-31T12:14:02;17.40;99.90
26691;DHT22;14307;51.718;8.938;2022-10-31T12:19:05;17.40;99.90
26691;DHT22;14307;51.718;8.938;2022-10-31T12:24:44;17.50;99.90
26691;DHT22;14307;51.718;8.938;2022-10-31T12:27:38;17.60;99.90
26691;DHT22;14307;51.718;8.938;2022-10-31T12:30:21;17.60;99.90
26691;DHT22;14307;51.718;8.938;2022-10-31T12:41:47;17.50;99.90
26691;DHT22;14307;51.718;8.938;2022-10-31T12:44:46;17.60;99.90
26691;DHT22;14307;51.718;8.938;2022-10-31T12:47:42;17.50;99.90
26691;DHT22;14307;51.718;8.938;2022-10-31T12:50:38;17.40;99.90
26691;DHT22;14307;51.718;8.938;2022-10-31T12:53:26;17.30;99.90
26691;DHT22;14307;51.718;8.938;2022-10-31T13:01:45;17.20;99.90
26691;DHT22;14307;51.718;8.938;2022-10-31T13:07:00;17.20;99.90
26691;DHT22;14307;51.718;8.938;2022-10-31T13:09:47;17.30;99.90
26691;DHT22;14307;51.718;8.938;2022-10-31T13:12:18;17.30;99.90
26691;DHT22;14307;51.718;8.938;2022-10-31T13:14:51;17.30;99.90
26691;DHT22;14307;51.718;8.938;2022-10-31T13:17:27;17.20;99.90
26691;DHT22;14307;51.718;8.938;2022-10-31T13:20:15;17.30;99.90
26691;DHT22;14307;51.718;8.938;2022-10-31T13:22:46;17.30;99.90
26691;DHT22;14307;51.718;8.938;2022-10-31T13:25:24;17.40;99.90
26691;DHT22;14307;51.718;8.938;2022-10-31T13:27:54;17.40;99.90
26691;DHT22;14307;51.718;8.938;2022-10-31T13:30:23;17.40;99.90
26691;DHT22;14307;51.718;8.938;2022-10-31T13:33:19;17.40;99.90
26691;DHT22;14307;51.718;8.938;2022-10-31T13:38:48;17.40;99.90
26691;DHT22;14307;51.718;8.938;2022-10-31T13:41:42;17.50;99.90
26691;DHT22;14307;51.718;8.938;2022-10-31T13:44:22;17.50;99.90
26691;DHT22;14307;51.718;8.938;2022-10-31T13:46:53;17.50;99.90
26691;DHT22;14307;51.718;8.938;2022-10-31T13:54:48;17.60;99.90
26691;DHT22;14307;51.718;8.938;2022-10-31T13:57:30;17.50;99.90
26691;DHT22;14307;51.718;8.938;2022-10-31T14:00:24;17.50;99.90
26691;DHT22;14307;51.718;8.938;2022-10-31T14:02:53;17.50;99.90
26691;DHT22;14307;51.718;8.938;2022-10-31T14:05:26;17.50;99.90
26691;DHT22;14307;51.718;8.938;2022-10-31T14:07:54;17.60;99.90
26691;DHT22;14307;51.718;8.938;2022-10-31T14:10:45;17.60;99.90
26691;DHT22;14307;51.718;8.938;2022-10-31T14:13:41;17.50;99.90
26691;DHT22;14307;51.718;8.938;2022-10-31T14:16:25;17.50;99.90
26691;DHT22;14307;51.718;8.938;2022-10-31T14:19:04;17.30;99.90
26691;DHT22;14307;51.718;8.938;2022-10-31T14:21:41;17.20;99.90
26691;DHT22;14307;51.718;8.938;2022-10-31T14:26:58;17.40;99.90
26691;DHT22;14307;51.718;8.938;2022-10-31T14:29:30;17.30;99.90
26691;DHT22;14307;51.718;8.938;2022-10-31T14:37:29;17.20;99.90
26691;DHT22;14307;51.718;8.938;2022-10-31T14:51:12;17.00;99.90
26691;DHT22;14307;51.718;8.938;2022-10-31T14:53:50;17.00;99.90
26691;DHT22;14307;51.718;8.938;2022-10-31T14:56:29;16.90;99.90
26691;DHT22;14307;51.718;8.938;2022-10-31T14:59:02;17.00;99.90
26691;DHT22;14307;51.718;8.938;2022-10-31T15:01:35;17.00;99.90
26691;DHT22;14307;51.718;8.938;2022-10-31T15:10:06;17.00;99.90
26691;DHT22;14307;51.718;8.938;2022-10-31T15:12:35;16.90;99.90
26691;DHT22;14307;51.718;8.938;2022-10-31T15:15:23;16.90;99.90
26691;DHT22;14307;51.718;8.938;2022-10-31T15:17:59;16.90;99.90
26691;DHT22;14307;51.718;8.938;2022-10-31T15:20:32;16.90;99.90
26691;DHT22;14307;51.718;8.938;2022-10-31T15:23:00;16.90;99.90
26691;DHT22;14307;51.718;8.938;2022-10-31T15:25:34;16.70;99.90
26691;DHT22;14307;51.718;8.938;2022-10-31T15:28:01;16.70;99.90
26691;DHT22;14307;51.718;8.938;2022-10-31T15:30:29;16.60;99.90
26691;DHT22;14307;51.718;8.938;2022-10-31T15:32:55;16.60;99.90
26691;DHT22;14307;51.718;8.938;2022-10-31T15:35:29;16.60;99.90
26691;DHT22;14307;51.718;8.938;2022-10-31T15:37:58;16.50;99.90
26691;DHT22;14307;51.718;8.938;2022-10-31T15:40:26;16.60;99.90
26691;DHT22;14307;51.718;8.938;2022-10-31T15:43:00;16.50;99.90
26691;DHT22;14307;51.718;8.938;2022-10-31T15:45:28;16.50;99.90
26691;DHT22;14307;51.718;8.938;2022-10-31T15:48:01;16.50;99.90
26691;DHT22;14307;51.718;8.938;2022-10-31T15:50:31;16.40;99.90
26691;DHT22;14307;51.718;8.938;2022-10-31T15:52:59;16.50;99.90
26691;DHT22;14307;51.718;8.938;2022-10-31T15:55:29;16.50;99.90
26691;DHT22;14307;51.718;8.938;2022-10-31T15:57:58;16.40;99.90
26691;DHT22;14307;51.718;8.938;2022-10-31T16:00:30;16.50;99.90
26691;DHT22;14307;51.718;8.938;2022-10-31T16:03:19;16.50;99.90
26691;DHT22;14307;51.718;8.938;2022-10-31T16:10:53;16.50;99.90
26691;DHT22;14307;51.718;8.938;2022-10-31T16:13:29;16.50;99.90
26691;DHT22;14307;51.718;8.938;2022-10-31T16:16:00;16.40;99.90
26691;DHT22;14307;51.718;8.938;2022-10-31T16:18:47;16.40;99.90
26691;DHT22;14307;51.718;8.938;2022-10-31T16:21:15;16.40;99.90
26691;DHT22;14307;51.718;8.938;2022-10-31T16:23:47;16.30;99.90
26691;DHT22;14307;51.718;8.938;2022-10-31T16:26:20;16.20;99.90
26691;DHT22;14307;51.718;8.938;2022-10-31T16:28:57;16.20;99.90
26691;DHT22;14307;51.718;8.938;2022-10-31T16:31:37;16.30;99.90
26691;DHT22;14307;51.718;8.938;2022-10-31T16:34:19;16.20;99.90
26691;DHT22;14307;51.718;8.938;2022-10-31T16:36:52;16.20;99.90
26691;DHT22;14307;51.718;8.938;2022-10-31T16:39:19;16.20;99.90
26691;DHT22;14307;51.718;8.938;2022-10-31T16:41:48;16.20;99.90
26691;DHT22;14307;51.718;8.938;2022-10-31T16:44:22;16.20;99.90
26691;DHT22;14307;51.718;8.938;2022-10-31T16:47:12;16.20;99.90
26691;DHT22;14307;51.718;8.938;2022-10-31T16:49:39;16.20;99.90
26691;DHT22;14307;51.718;8.938;2022-10-31T16:52:06;16.20;99.90
26691;DHT22;14307;51.718;8.938;2022-10-31T16:54:32;16.20;99.90
26691;DHT22;14307;51.718;8.938;2022-10-31T16:56:59;16.10;99.90
26691;DHT22;14307;51.718;8.938;2022-10-31T16:59:27;16.10;99.90
26691;DHT22;14307;51.718;8.938;2022-10-31T17:01:54;16.10;99.90
26691;DHT22;14307;51.718;8.938;2022-10-31T17:04:21;16.00;99.90
26691;DHT22;14307;51.718;8.938;2022-10-31T17:06:48;16.00;99.90
26691;DHT22;14307;51.718;8.938;2022-10-31T17:09:15;16.00;99.90
26691;DHT22;14307;51.718;8.938;2022-10-31T17:11:46;16.00;99.90
26691;DHT22;14307;51.718;8.938;2022-10-31T17:14:16;15.90;99.90
26691;DHT22;14307;51.718;8.938;2022-10-31T17:16:43;16.00;99.90
26691;DHT22;14307;51.718;8.938;2022-10-31T17:19:10;16.00;99.90
26691;DHT22;14307;51.718;8.938;2022-10-31T17:21:37;16.00;99.90
26691;DHT22;14307;51.718;8.938;2022-10-31T17:24:05;15.90;99.90
26691;DHT22;14307;51.718;8.938;2022-10-31T17:26:32;15.90;99.90
26691;DHT22;14307;51.718;8.938;2022-10-31T17:28:59;15.90;99.90
26691;DHT22;14307;51.718;8.938;2022-10-31T17:31:29;15.90;99.90
26691;DHT22;14307;51.718;8.938;2022-10-31T17:33:57;15.90;99.90
26691;DHT22;14307;51.718;8.938;2022-10-31T17:36:30;15.80;99.90
26691;DHT22;14307;51.718;8.938;2022-10-31T17:38:56;15.90;99.90
26691;DHT22;14307;51.718;8.938;2022-10-31T17:41:23;15.80;99.90
26691;DHT22;14307;51.718;8.938;2022-10-31T17:43:57;15.80;99.90
26691;DHT22;14307;51.718;8.938;2022-10-31T17:46:24;15.80;99.90
26691;DHT22;14307;51.718;8.938;2022-10-31T17:48:51;15.80;99.90
26691;DHT22;14307;51.718;8.938;2022-10-31T17:51:17;15.70;99.90
26691;DHT22;14307;51.718;8.938;2022-10-31T17:53:44;15.70;99.90
26691;DHT22;14307;51.718;8.938;2022-10-31T17:56:11;15.70;99.90
26691;DHT22;14307;51.718;8.938;2022-10-31T17:58:37;15.70;99.90
26691;DHT22;14307;51.718;8.938;2022-10-31T18:01:12;15.60;99.90
26691;DHT22;14307;51.718;8.938;2022-10-31T18:03:40;15.60;99.90
26691;DHT22;14307;51.718;8.938;2022-10-31T18:06:07;15.60;99.90
26691;DHT22;14307;51.718;8.938;2022-10-31T18:08:38;15.50;99.90
26691;DHT22;14307;51.718;8.938;2022-10-31T18:11:06;15.40;99.90
26691;DHT22;14307;51.718;8.938;2022-10-31T18:13:37;15.40;99.90
26691;DHT22;14307;51.718;8.938;2022-10-31T18:16:11;15.40;99.90
26691;DHT22;14307;51.718;8.938;2022-10-31T18:18:38;15.40;99.90